Time;durP1;ratioP1;P1;durP2;ratioP2;P2;SDS_P1;SDS_P2;PMS_P1;PMS_P2;Temp;Humidity;BMP_temperature;BMP_pressure;BME280_temperature;BME280_humidity;BME280_pressure;Samples;Min_cycle;Max_cycle;Signal;HPM_P1;HPM_P2
2020/12/22 00:02:14;;;;;;;;;;;13.30;89.00;;;;;;4723617;30;19930;-88
2020/12/22 00:04:40;;;;;;;;;;;13.40;88.90;;;;;;4734622;30;19918;-87
2020/12/22 00:07:05;;;;;;;;;;;13.40;89.50;;;;;;4738070;30;19977;-87
2020/12/22 00:09:31;;;;;;;;;;;13.40;88.90;;;;;;4720001;30;19922;-87
2020/12/22 00:11:56;;;;;;;;;;;13.50;88.90;;;;;;4726623;30;19925;-87
2020/12/22 00:14:22;;;;;;;;;;;13.50;88.80;;;;;;4742997;30;19919;-87
2020/12/22 00:16:47;;;;;;;;;;;13.50;89.00;;;;;;4749352;30;19921;-87
2020/12/22 00:19:13;;;;;;;;;;;13.50;88.90;;;;;;4766195;30;19929;-87
2020/12/22 00:21:38;;;;;;;;;;;13.60;89.10;;;;;;4753490;30;19956;-87
2020/12/22 00:24:04;;;;;;;;;;;13.60;89.00;;;;;;4755245;30;19914;-87
2020/12/22 00:26:29;;;;;;;;;;;13.60;89.10;;;;;;4771283;30;20036;-87
2020/12/22 00:28:55;;;;;;;;;;;13.60;89.10;;;;;;4754994;30;19922;-87
2020/12/22 00:31:21;;;;;;;;;;;13.70;89.20;;;;;;4771167;30;19917;-87
2020/12/22 00:33:46;;;;;;;;;;;13.70;88.90;;;;;;4770928;30;19918;-87
2020/12/22 00:36:12;;;;;;;;;;;13.70;89.00;;;;;;4770791;30;19945;-87
2020/12/22 00:38:37;;;;;;;;;;;13.70;89.00;;;;;;4754863;30;19928;-87
2020/12/22 00:41:03;;;;;;;;;;;13.80;89.00;;;;;;4754715;30;19927;-87
2020/12/22 00:43:28;;;;;;;;;;;13.80;88.80;;;;;;4740399;30;19967;-87
2020/12/22 00:45:54;;;;;;;;;;;13.80;88.70;;;;;;4770662;30;19918;-87
2020/12/22 00:48:20;;;;;;;;;;;13.90;88.50;;;;;;4740428;30;19922;-87
2020/12/22 00:50:45;;;;;;;;;;;13.90;88.60;;;;;;4770797;30;19979;-87
2020/12/22 00:53:11;;;;;;;;;;;13.90;88.60;;;;;;4754534;30;20005;-87
2020/12/22 00:55:36;;;;;;;;;;;14.00;88.80;;;;;;4754773;30;20369;-87
2020/12/22 00:58:02;;;;;;;;;;;14.00;88.80;;;;;;4739635;30;19929;-87
2020/12/22 01:00:27;;;;;;;;;;;14.00;88.70;;;;;;4740174;30;19918;-87
2020/12/22 01:02:53;;;;;;;;;;;14.00;88.60;;;;;;4754099;30;19921;-87
2020/12/22 01:05:18;;;;;;;;;;;14.00;88.60;;;;;;4751224;30;19958;-87
2020/12/22 01:07:44;;;;;;;;;;;14.10;88.60;;;;;;4752852;30;19925;-87
2020/12/22 01:10:09;;;;;;;;;;;14.10;88.60;;;;;;4721957;30;20111;-87
2020/12/22 01:12:35;;;;;;;;;;;14.10;88.60;;;;;;4722259;30;20317;-87
2020/12/22 01:15:03;;;;;;;;;;;14.10;88.40;;;;;;4736504;30;20351;-87
2020/12/22 01:17:29;;;;;;;;;;;14.10;88.30;;;;;;4752614;30;20008;-87
2020/12/22 01:19:54;;;;;;;;;;;14.10;88.20;;;;;;4721901;30;20017;-87
2020/12/22 01:22:20;;;;;;;;;;;14.20;88.30;;;;;;4736536;30;20450;-87
2020/12/22 01:24:46;;;;;;;;;;;14.20;88.30;;;;;;4736715;30;19922;-87
2020/12/22 01:27:11;;;;;;;;;;;14.20;88.20;;;;;;4736123;30;19968;-87
2020/12/22 01:29:40;;;;;;;;;;;14.20;88.20;;;;;;4721864;30;20393;-87
2020/12/22 01:32:05;;;;;;;;;;;14.30;88.20;;;;;;4752081;30;19922;-87
2020/12/22 01:34:30;;;;;;;;;;;14.30;88.10;;;;;;4736384;30;19932;-87
2020/12/22 01:36:56;;;;;;;;;;;14.30;88.10;;;;;;4750581;30;20069;-87
2020/12/22 01:39:21;;;;;;;;;;;14.30;88.10;;;;;;4753589;30;20293;-87
2020/12/22 01:41:47;;;;;;;;;;;14.30;88.00;;;;;;4739265;30;19948;-87
2020/12/22 01:44:15;;;;;;;;;;;14.30;88.00;;;;;;4769704;30;19958;-87
2020/12/22 01:46:46;;;;;;;;;;;14.30;87.90;;;;;;4769814;30;19968;-87
2020/12/22 01:49:19;;;;;;;;;;;14.30;87.90;;;;;;4753458;30;19922;-87
2020/12/22 01:51:45;;;;;;;;;;;14.40;87.80;;;;;;4755956;30;19976;-87
2020/12/22 01:54:12;;;;;;;;;;;14.40;87.70;;;;;;4736082;30;19922;-87
2020/12/22 01:56:37;;;;;;;;;;;14.40;87.60;;;;;;4766209;30;19921;-87
2020/12/22 01:59:03;;;;;;;;;;;14.50;87.60;;;;;;4753515;30;19918;-86
2020/12/22 02:01:30;;;;;;;;;;;14.50;87.60;;;;;;4753781;30;20380;-87
2020/12/22 02:03:56;;;;;;;;;;;14.50;87.50;;;;;;4753246;30;20013;-87
2020/12/22 02:06:21;;;;;;;;;;;14.50;87.40;;;;;;4752106;30;20024;-87
2020/12/22 02:08:47;;;;;;;;;;;14.50;87.40;;;;;;4739007;30;19928;-87
2020/12/22 02:11:20;;;;;;;;;;;14.50;87.50;;;;;;4753223;30;19968;-87
2020/12/22 02:13:46;;;;;;;;;;;14.50;87.60;;;;;;4769468;30;19918;-87
2020/12/22 02:16:11;;;;;;;;;;;14.50;87.80;;;;;;4738466;30;20456;-87
2020/12/22 02:18:37;;;;;;;;;;;14.50;87.60;;;;;;4753468;30;19922;-87
2020/12/22 02:21:03;;;;;;;;;;;14.50;87.70;;;;;;4752981;30;20284;-87
2020/12/22 02:23:28;;;;;;;;;;;14.50;87.60;;;;;;4738661;30;19945;-87
2020/12/22 02:25:54;;;;;;;;;;;14.50;87.70;;;;;;4740621;30;20293;-87
2020/12/22 02:28:19;;;;;;;;;;;14.50;87.60;;;;;;4721040;30;19919;-87
2020/12/22 02:30:44;;;;;;;;;;;14.50;87.60;;;;;;4735653;30;19919;-87
2020/12/22 02:33:11;;;;;;;;;;;14.60;87.70;;;;;;4720337;30;20342;-87
2020/12/22 02:35:37;;;;;;;;;;;14.50;87.50;;;;;;4735624;30;20396;-87
2020/12/22 02:38:03;;;;;;;;;;;14.60;87.50;;;;;;4720475;30;19918;-87
2020/12/22 02:40:28;;;;;;;;;;;14.60;87.50;;;;;;4720544;30;19930;-87
2020/12/22 02:43:00;;;;;;;;;;;14.60;87.50;;;;;;4720178;30;19929;-85
2020/12/22 02:45:26;;;;;;;;;;;14.60;87.40;;;;;;4734567;30;19956;-85
2020/12/22 02:47:51;;;;;;;;;;;14.60;87.30;;;;;;4734529;30;19968;-85
2020/12/22 02:50:17;;;;;;;;;;;14.60;87.20;;;;;;4734924;30;19975;-85
2020/12/22 02:52:42;;;;;;;;;;;14.60;87.20;;;;;;4734765;30;19933;-85
2020/12/22 02:55:08;;;;;;;;;;;14.70;87.20;;;;;;4726482;30;20373;-85
2020/12/22 02:57:33;;;;;;;;;;;14.70;87.20;;;;;;4752411;30;20020;-85
2020/12/22 02:59:59;;;;;;;;;;;14.70;87.20;;;;;;4737415;30;20377;-85
2020/12/22 03:02:24;;;;;;;;;;;14.70;87.10;;;;;;4752332;30;20382;-85
2020/12/22 03:04:50;;;;;;;;;;;14.70;87.00;;;;;;4729872;30;19927;-85
2020/12/22 03:07:15;;;;;;;;;;;14.70;87.00;;;;;;4734487;30;20370;-85
2020/12/22 03:09:41;;;;;;;;;;;14.70;86.90;;;;;;4734756;30;19925;-85
2020/12/22 03:12:06;;;;;;;;;;;14.70;86.80;;;;;;4719685;30;19922;-85
2020/12/22 03:14:32;;;;;;;;;;;14.80;86.90;;;;;;4723062;30;20300;-85
2020/12/22 03:16:57;;;;;;;;;;;14.80;86.80;;;;;;4751863;30;19928;-85
2020/12/22 03:19:23;;;;;;;;;;;14.70;86.80;;;;;;4737639;30;19929;-87
2020/12/22 03:21:48;;;;;;;;;;;14.80;86.90;;;;;;4737844;30;19922;-88
2020/12/22 03:24:14;;;;;;;;;;;14.80;86.90;;;;;;4752052;30;20008;-88
2020/12/22 03:26:39;;;;;;;;;;;14.80;86.90;;;;;;4735017;30;19919;-87
2020/12/22 03:29:05;;;;;;;;;;;14.80;86.90;;;;;;4734335;30;20219;-87
2020/12/22 03:31:30;;;;;;;;;;;14.80;87.20;;;;;;4735060;30;20354;-87
2020/12/22 03:33:56;;;;;;;;;;;14.80;87.00;;;;;;4734423;30;19922;-87
2020/12/22 03:36:21;;;;;;;;;;;14.80;87.00;;;;;;4720317;30;19918;-87
2020/12/22 03:38:47;;;;;;;;;;;14.80;86.90;;;;;;4731087;24;19934;-88
2020/12/22 03:41:12;;;;;;;;;;;14.90;87.00;;;;;;4734532;30;19950;-89
2020/12/22 03:43:38;;;;;;;;;;;14.90;86.90;;;;;;4749623;30;19922;-89
2020/12/22 03:46:05;;;;;;;;;;;14.80;86.90;;;;;;4734396;30;19930;-88
2020/12/22 03:48:30;;;;;;;;;;;14.80;86.80;;;;;;4749473;30;19941;-88
2020/12/22 03:50:57;;;;;;;;;;;14.80;86.90;;;;;;4734087;30;19919;-88
2020/12/22 03:53:22;;;;;;;;;;;14.90;86.90;;;;;;4750762;30;19926;-89
2020/12/22 03:55:48;;;;;;;;;;;14.90;86.90;;;;;;4734705;30;20013;-89
2020/12/22 03:58:13;;;;;;;;;;;14.90;86.90;;;;;;4737798;30;20299;-89
2020/12/22 04:00:39;;;;;;;;;;;14.90;86.90;;;;;;4738231;30;19919;-88
2020/12/22 04:03:04;;;;;;;;;;;14.90;87.00;;;;;;4737561;30;19986;-89
2020/12/22 04:05:30;;;;;;;;;;;14.90;87.00;;;;;;4738004;30;19919;-89
2020/12/22 04:07:55;;;;;;;;;;;14.90;87.00;;;;;;4753412;30;20039;-88
2020/12/22 04:10:21;;;;;;;;;;;14.90;87.00;;;;;;4737928;30;19926;-89
2020/12/22 04:12:46;;;;;;;;;;;14.90;86.90;;;;;;4753843;30;20366;-88
2020/12/22 04:15:12;;;;;;;;;;;14.90;87.00;;;;;;4752406;30;19918;-89
2020/12/22 04:17:39;;;;;;;;;;;14.90;86.90;;;;;;4752643;30;19919;-89
2020/12/22 04:20:05;;;;;;;;;;;14.90;87.00;;;;;;4752153;30;20381;-89
2020/12/22 04:22:30;;;;;;;;;;;14.90;86.90;;;;;;4737674;30;19926;-88
2020/12/22 04:24:56;;;;;;;;;;;14.90;86.90;;;;;;4737350;30;19918;-88
2020/12/22 04:27:21;;;;;;;;;;;14.90;86.90;;;;;;4737685;30;19952;-89
2020/12/22 04:29:47;;;;;;;;;;;14.90;87.00;;;;;;4737652;30;19930;-88
2020/12/22 04:32:12;;;;;;;;;;;14.90;86.90;;;;;;4753166;30;20477;-89
2020/12/22 04:34:38;;;;;;;;;;;14.90;87.00;;;;;;4752474;30;20063;-88
2020/12/22 04:37:03;;;;;;;;;;;14.90;87.00;;;;;;4736805;30;20059;-86
2020/12/22 04:39:29;;;;;;;;;;;14.90;86.90;;;;;;4763456;30;20029;-85
2020/12/22 04:41:57;;;;;;;;;;;15.00;87.00;;;;;;4754253;30;21574;-85
2020/12/22 04:44:22;;;;;;;;;;;15.00;86.90;;;;;;4754620;30;19922;-85
2020/12/22 04:46:49;;;;;;;;;;;15.00;86.90;;;;;;4754398;30;19918;-85
2020/12/22 04:49:17;;;;;;;;;;;15.00;86.90;;;;;;4754123;30;19936;-85
2020/12/22 04:51:43;;;;;;;;;;;15.00;87.50;;;;;;4770160;30;19917;-85
2020/12/22 04:54:08;;;;;;;;;;;15.00;86.80;;;;;;4754153;30;20699;-85
2020/12/22 04:56:35;;;;;;;;;;;15.00;86.80;;;;;;4770180;30;19918;-85
2020/12/22 04:59:01;;;;;;;;;;;15.00;86.80;;;;;;4753963;30;19969;-85
2020/12/22 05:01:26;;;;;;;;;;;15.00;86.90;;;;;;4754367;30;19968;-85
2020/12/22 05:03:52;;;;;;;;;;;15.00;86.80;;;;;;4739400;30;19928;-85
2020/12/22 05:06:18;;;;;;;;;;;15.00;86.80;;;;;;4753896;30;19918;-85
2020/12/22 05:08:43;;;;;;;;;;;15.00;86.90;;;;;;4739244;30;19921;-85
2020/12/22 05:11:16;;;;;;;;;;;15.00;86.90;;;;;;4753817;30;20269;-86
2020/12/22 05:13:41;;;;;;;;;;;15.00;86.90;;;;;;4770243;30;19920;-85
2020/12/22 05:16:08;;;;;;;;;;;15.10;87.00;;;;;;4769740;30;20024;-85
2020/12/22 05:18:34;;;;;;;;;;;15.00;87.00;;;;;;4753757;30;19914;-85
2020/12/22 05:21:00;;;;;;;;;;;15.00;87.00;;;;;;4754113;30;19929;-85
2020/12/22 05:23:27;;;;;;;;;;;15.10;87.10;;;;;;4753844;30;19914;-86
2020/12/22 05:25:52;;;;;;;;;;;15.10;87.00;;;;;;4753756;30;19914;-86
2020/12/22 05:28:19;;;;;;;;;;;15.10;87.00;;;;;;4738852;30;19951;-85
2020/12/22 05:30:45;;;;;;;;;;;15.10;87.00;;;;;;4739065;30;20075;-85
2020/12/22 05:33:11;;;;;;;;;;;15.10;86.90;;;;;;4739007;30;19922;-85
2020/12/22 05:35:37;;;;;;;;;;;15.10;86.90;;;;;;4753474;30;19925;-85
2020/12/22 05:38:04;;;;;;;;;;;15.10;86.90;;;;;;4769205;30;19922;-85
2020/12/22 05:40:29;;;;;;;;;;;15.10;86.90;;;;;;4753590;30;19924;-85
2020/12/22 05:42:58;;;;;;;;;;;15.10;86.80;;;;;;4752867;30;19914;-85
2020/12/22 05:45:29;;;;;;;;;;;15.10;86.90;;;;;;4738755;30;19917;-85
2020/12/22 05:47:54;;;;;;;;;;;15.10;86.80;;;;;;4769551;30;20427;-85
2020/12/22 05:50:24;;;;;;;;;;;15.10;86.90;;;;;;4753098;30;19976;-85
2020/12/22 05:52:51;;;;;;;;;;;15.10;87.00;;;;;;4769602;30;20323;-85
2020/12/22 05:55:24;;;;;;;;;;;15.10;86.90;;;;;;4768929;30;19922;-85
2020/12/22 05:57:49;;;;;;;;;;;15.10;87.00;;;;;;4769409;30;20361;-85
2020/12/22 06:00:15;;;;;;;;;;;15.10;87.00;;;;;;4738316;30;19925;-85
2020/12/22 06:02:41;;;;;;;;;;;15.10;86.90;;;;;;4753316;30;19925;-84
2020/12/22 06:05:07;;;;;;;;;;;15.10;86.90;;;;;;4753233;30;19922;-84
2020/12/22 06:07:32;;;;;;;;;;;15.10;86.90;;;;;;4753238;30;19917;-84
2020/12/22 06:09:58;;;;;;;;;;;15.10;86.90;;;;;;4737758;30;20423;-85
2020/12/22 06:12:24;;;;;;;;;;;15.10;86.90;;;;;;4752629;30;20053;-85
2020/12/22 06:14:50;;;;;;;;;;;15.10;86.80;;;;;;4738379;30;20288;-85
2020/12/22 06:17:16;;;;;;;;;;;15.10;86.80;;;;;;4752808;30;20032;-85
2020/12/22 06:19:43;;;;;;;;;;;15.10;86.80;;;;;;4752385;30;20000;-85
2020/12/22 06:22:10;;;;;;;;;;;15.10;86.80;;;;;;4768819;30;20351;-84
2020/12/22 06:24:35;;;;;;;;;;;15.10;86.70;;;;;;4752968;30;19914;-85
2020/12/22 06:27:05;;;;;;;;;;;15.10;86.70;;;;;;4752908;30;19918;-88
2020/12/22 06:29:32;;;;;;;;;;;15.10;86.70;;;;;;4769207;30;19953;-88
2020/12/22 06:32:21;;;;;;;;;;;15.10;86.70;;;;;;4769365;30;20269;-88
2020/12/22 06:34:46;;;;;;;;;;;15.10;86.70;;;;;;4769228;30;19914;-88
2020/12/22 06:37:12;;;;;;;;;;;15.10;86.50;;;;;;4768780;30;20373;-88
2020/12/22 06:39:56;;;;;;;;;;;15.10;86.50;;;;;;4750092;30;19942;-88
2020/12/22 06:42:31;;;;;;;;;;;15.10;86.40;;;;;;4749895;30;19918;-88
2020/12/22 06:45:15;;;;;;;;;;;15.10;86.40;;;;;;4750229;30;19918;-88
2020/12/22 06:47:40;;;;;;;;;;;15.10;86.30;;;;;;4750198;30;19922;-89
2020/12/22 06:50:06;;;;;;;;;;;15.10;86.20;;;;;;4750829;30;19918;-88
2020/12/22 06:52:33;;;;;;;;;;;15.10;86.20;;;;;;4750219;30;19922;-88
2020/12/22 06:54:59;;;;;;;;;;;15.10;86.20;;;;;;4751322;30;19941;-89
2020/12/22 06:57:43;;;;;;;;;;;15.10;86.10;;;;;;4751031;30;19922;-89
2020/12/22 07:00:09;;;;;;;;;;;15.10;86.10;;;;;;4750501;30;19914;-85
2020/12/22 07:02:36;;;;;;;;;;;15.10;86.00;;;;;;4749224;30;19961;-84
2020/12/22 07:05:03;;;;;;;;;;;15.10;85.90;;;;;;4733829;30;19930;-85
2020/12/22 07:07:47;;;;;;;;;;;15.10;85.80;;;;;;4749414;30;19914;-84
2020/12/22 07:10:14;;;;;;;;;;;15.10;85.80;;;;;;4748551;30;19923;-84
2020/12/22 07:12:40;;;;;;;;;;;15.10;85.70;;;;;;4748954;30;19930;-84
2020/12/22 07:15:06;;;;;;;;;;;15.10;85.60;;;;;;4734343;30;19922;-85
2020/12/22 07:17:32;;;;;;;;;;;15.10;85.40;;;;;;4749260;30;19914;-85
2020/12/22 07:19:58;;;;;;;;;;;15.10;85.40;;;;;;4734795;30;20328;-85
2020/12/22 07:22:23;;;;;;;;;;;15.10;85.40;;;;;;4749150;30;19918;-85
2020/12/22 07:24:49;;;;;;;;;;;15.10;85.20;;;;;;4734848;30;19925;-85
2020/12/22 07:27:14;;;;;;;;;;;15.10;85.20;;;;;;4749105;30;20046;-85
2020/12/22 07:29:40;;;;;;;;;;;15.00;85.00;;;;;;4749321;30;20366;-85
2020/12/22 07:32:06;;;;;;;;;;;15.00;85.00;;;;;;4753605;30;19960;-85
2020/12/22 07:34:32;;;;;;;;;;;15.00;84.90;;;;;;4752731;30;19918;-85
2020/12/22 07:37:06;;;;;;;;;;;15.00;85.00;;;;;;4737846;30;19922;-85
2020/12/22 07:39:32;;;;;;;;;;;15.00;85.00;;;;;;4755165;30;19938;-85
2020/12/22 07:42:07;;;;;;;;;;;15.00;85.00;;;;;;4772081;30;19929;-85
2020/12/22 07:44:32;;;;;;;;;;;15.00;85.00;;;;;;4771946;30;19913;-85
2020/12/22 07:46:58;;;;;;;;;;;15.00;85.10;;;;;;4741313;30;19928;-85
2020/12/22 07:49:23;;;;;;;;;;;15.00;85.10;;;;;;4755630;30;20009;-85
2020/12/22 07:51:49;;;;;;;;;;;15.00;85.10;;;;;;4755496;30;19922;-85
2020/12/22 07:54:15;;;;;;;;;;;15.00;85.20;;;;;;4755060;30;19922;-85
2020/12/22 07:56:42;;;;;;;;;;;15.00;85.20;;;;;;4755554;30;19924;-85
2020/12/22 07:59:08;;;;;;;;;;;15.00;85.10;;;;;;4755006;30;20376;-87
2020/12/22 08:01:41;;;;;;;;;;;15.00;85.00;;;;;;4755651;30;19922;-88
2020/12/22 08:04:17;;;;;;;;;;;15.00;85.10;;;;;;4771137;30;19922;-87
2020/12/22 08:06:52;;;;;;;;;;;15.00;85.10;;;;;;4740501;30;19918;-87
2020/12/22 08:09:20;;;;;;;;;;;15.00;85.00;;;;;;4755239;30;19922;-87
2020/12/22 08:11:46;;;;;;;;;;;15.00;85.00;;;;;;4771154;30;19922;-87
2020/12/22 08:14:11;;;;;;;;;;;15.00;85.00;;;;;;4740015;30;19980;-87
2020/12/22 08:16:37;;;;;;;;;;;14.90;84.90;;;;;;4740666;30;19922;-87
2020/12/22 08:19:04;;;;;;;;;;;14.90;84.80;;;;;;4740380;30;19924;-88
2020/12/22 08:21:30;;;;;;;;;;;14.90;84.80;;;;;;4771305;30;19914;-88
2020/12/22 08:23:56;;;;;;;;;;;14.90;84.80;;;;;;4771339;30;20497;-87
2020/12/22 08:26:22;;;;;;;;;;;14.90;84.80;;;;;;4740151;30;19925;-88
2020/12/22 08:28:51;;;;;;;;;;;14.90;84.70;;;;;;4740329;30;19926;-87
2020/12/22 08:31:20;;;;;;;;;;;14.90;84.70;;;;;;4739739;30;19926;-86
2020/12/22 08:33:49;;;;;;;;;;;14.90;84.30;;;;;;4754902;30;19934;-87
2020/12/22 08:36:15;;;;;;;;;;;14.90;84.40;;;;;;4754810;30;20365;-85
2020/12/22 08:38:40;;;;;;;;;;;14.90;84.30;;;;;;4754837;30;20036;-85
2020/12/22 08:41:16;;;;;;;;;;;14.80;84.00;;;;;;4754695;30;19928;-85
2020/12/22 08:43:49;;;;;;;;;;;14.80;83.80;;;;;;4770418;30;20000;-85
2020/12/22 08:46:15;;;;;;;;;;;14.80;83.70;;;;;;4770628;30;20000;-84
2020/12/22 08:48:40;;;;;;;;;;;14.90;83.70;;;;;;4739968;30;20008;-85
2020/12/22 08:51:06;;;;;;;;;;;14.80;83.60;;;;;;4770346;30;19921;-85
2020/12/22 08:53:32;;;;;;;;;;;14.80;83.70;;;;;;4745868;30;19914;-84
2020/12/22 08:56:08;;;;;;;;;;;14.80;83.60;;;;;;4756766;30;19925;-85
2020/12/22 08:58:34;;;;;;;;;;;14.80;83.40;;;;;;4766920;30;19963;-85
2020/12/22 09:01:00;;;;;;;;;;;14.80;83.40;;;;;;4755823;30;20353;-85
2020/12/22 09:03:27;;;;;;;;;;;14.80;83.30;;;;;;4737752;30;19991;-85
2020/12/22 09:05:52;;;;;;;;;;;14.80;83.10;;;;;;4754084;30;19918;-85
2020/12/22 09:08:18;;;;;;;;;;;14.80;83.30;;;;;;4770158;30;20295;-85
2020/12/22 09:10:47;;;;;;;;;;;14.80;83.40;;;;;;4739713;30;19918;-85
2020/12/22 09:13:13;;;;;;;;;;;14.80;83.40;;;;;;4753953;30;19961;-85
2020/12/22 09:15:51;;;;;;;;;;;14.80;83.40;;;;;;4754266;30;19925;-85
2020/12/22 09:18:17;;;;;;;;;;;14.80;83.40;;;;;;4753831;30;19921;-85
2020/12/22 09:20:42;;;;;;;;;;;14.90;83.40;;;;;;4754256;30;19918;-85
2020/12/22 09:23:08;;;;;;;;;;;14.80;83.50;;;;;;4753677;30;20381;-85
2020/12/22 09:25:33;;;;;;;;;;;14.80;83.60;;;;;;4770111;30;19922;-85
2020/12/22 09:27:58;;;;;;;;;;;14.90;83.60;;;;;;4739266;30;19966;-85
2020/12/22 09:30:24;;;;;;;;;;;14.90;83.70;;;;;;4753693;30;20365;-85
2020/12/22 09:32:50;;;;;;;;;;;14.90;83.90;;;;;;4753996;30;20045;-85
2020/12/22 09:35:15;;;;;;;;;;;14.90;84.00;;;;;;4769529;30;20403;-85
2020/12/22 09:37:41;;;;;;;;;;;14.80;84.10;;;;;;4746943;24;19961;-86
2020/12/22 09:40:06;;;;;;;;;;;14.80;84.20;;;;;;4753860;30;19922;-86
2020/12/22 09:42:32;;;;;;;;;;;14.80;84.30;;;;;;4739588;30;19929;-86
2020/12/22 09:44:57;;;;;;;;;;;14.80;84.30;;;;;;4754453;30;19972;-87
2020/12/22 09:47:23;;;;;;;;;;;14.80;84.40;;;;;;4754725;30;20009;-87
2020/12/22 09:49:48;;;;;;;;;;;14.80;84.50;;;;;;4739240;30;19926;-87
2020/12/22 09:52:14;;;;;;;;;;;14.80;84.60;;;;;;4737716;30;19979;-87
2020/12/22 09:54:39;;;;;;;;;;;14.90;84.70;;;;;;4721159;30;19922;-86
2020/12/22 09:57:05;;;;;;;;;;;14.80;84.60;;;;;;4737679;30;20429;-86
2020/12/22 09:59:30;;;;;;;;;;;14.80;84.50;;;;;;4735751;30;20330;-87
2020/12/22 10:01:59;;;;;;;;;;;14.90;84.60;;;;;;4751912;30;20411;-88
2020/12/22 10:04:25;;;;;;;;;;;14.90;84.60;;;;;;4735638;30;19995;-88
2020/12/22 10:06:53;;;;;;;;;;;14.80;84.70;;;;;;4736385;30;20381;-88
2020/12/22 10:09:19;;;;;;;;;;;14.80;84.60;;;;;;4735558;30;19965;-88
2020/12/22 10:11:45;;;;;;;;;;;14.80;84.70;;;;;;4751553;30;20519;-88
2020/12/22 10:14:13;;;;;;;;;;;14.80;84.60;;;;;;4735582;30;19914;-88
2020/12/22 10:16:39;;;;;;;;;;;14.80;84.50;;;;;;4746639;30;19925;-88
2020/12/22 10:19:04;;;;;;;;;;;14.80;84.60;;;;;;4753351;30;19921;-88
2020/12/22 10:21:30;;;;;;;;;;;14.70;84.60;;;;;;4753284;30;20402;-86
2020/12/22 10:24:04;;;;;;;;;;;14.70;84.70;;;;;;4753360;30;20409;-87
2020/12/22 10:26:30;;;;;;;;;;;14.70;84.90;;;;;;4768806;30;19924;-87
2020/12/22 10:28:59;;;;;;;;;;;14.70;85.00;;;;;;4753284;30;20307;-87
2020/12/22 10:31:25;;;;;;;;;;;14.60;85.10;;;;;;4752780;30;19937;-87
2020/12/22 10:34:00;;;;;;;;;;;14.60;85.20;;;;;;4751510;30;20450;-87
2020/12/22 10:36:26;;;;;;;;;;;14.60;85.30;;;;;;4760250;30;19948;-87
2020/12/22 10:38:52;;;;;;;;;;;14.60;85.30;;;;;;4730944;30;19926;-86
2020/12/22 10:41:18;;;;;;;;;;;14.60;85.30;;;;;;4737985;30;19922;-87
2020/12/22 10:43:43;;;;;;;;;;;14.60;85.30;;;;;;4769221;30;19925;-88
2020/12/22 10:46:09;;;;;;;;;;;14.50;85.20;;;;;;4753533;30;19922;-87
2020/12/22 10:48:38;;;;;;;;;;;14.60;85.30;;;;;;4752881;30;19941;-88
2020/12/22 10:51:06;;;;;;;;;;;14.50;85.30;;;;;;4769234;30;19925;-87
2020/12/22 10:53:31;;;;;;;;;;;14.50;85.30;;;;;;4752676;30;20017;-87
2020/12/22 10:55:58;;;;;;;;;;;14.50;85.30;;;;;;4767546;30;20436;-87
2020/12/22 10:58:23;;;;;;;;;;;14.50;85.20;;;;;;4738015;30;19922;-87
2020/12/22 11:00:49;;;;;;;;;;;14.50;85.10;;;;;;4752714;30;20308;-85
2020/12/22 11:03:19;;;;;;;;;;;14.40;85.10;;;;;;4737746;30;19954;-87
2020/12/22 11:08:31;;;;;;;;;;;14.50;84.90;;;;;;4764036;30;19930;-87
2020/12/22 11:10:58;;;;;;;;;;;14.40;84.70;;;;;;4744486;30;19922;-87
2020/12/22 11:13:24;;;;;;;;;;;14.40;84.70;;;;;;4767199;30;19929;-87
2020/12/22 11:15:49;;;;;;;;;;;14.40;84.70;;;;;;4734246;30;20463;-87
2020/12/22 11:18:15;;;;;;;;;;;14.40;84.60;;;;;;4745795;30;20325;-86
2020/12/22 11:20:40;;;;;;;;;;;14.40;84.30;;;;;;4752833;30;20004;-87
2020/12/22 11:23:06;;;;;;;;;;;14.40;84.40;;;;;;4730342;30;20358;-87
2020/12/22 11:25:31;;;;;;;;;;;14.40;84.30;;;;;;4735229;30;20128;-87
2020/12/22 11:27:57;;;;;;;;;;;14.40;84.10;;;;;;4720602;30;19957;-87
2020/12/22 11:30:23;;;;;;;;;;;14.40;84.10;;;;;;4734891;30;19924;-87
2020/12/22 11:32:49;;;;;;;;;;;14.50;84.00;;;;;;4750618;30;19965;-87
2020/12/22 11:35:15;;;;;;;;;;;14.50;83.80;;;;;;4753396;30;19969;-87
2020/12/22 11:37:40;;;;;;;;;;;14.50;83.80;;;;;;4750153;30;19929;-87
2020/12/22 11:40:06;;;;;;;;;;;14.50;83.80;;;;;;4740588;30;19922;-87
2020/12/22 11:42:32;;;;;;;;;;;14.60;83.70;;;;;;4737786;30;19961;-87
2020/12/22 11:44:57;;;;;;;;;;;14.60;83.60;;;;;;4752499;30;20013;-87
2020/12/22 11:47:23;;;;;;;;;;;14.60;83.50;;;;;;4732758;30;19924;-87
2020/12/22 11:49:48;;;;;;;;;;;14.60;83.40;;;;;;4735238;30;19984;-86
2020/12/22 11:52:14;;;;;;;;;;;14.60;83.30;;;;;;4734574;30;19952;-87
2020/12/22 11:54:39;;;;;;;;;;;14.70;83.20;;;;;;4719849;30;19993;-87
2020/12/22 11:57:05;;;;;;;;;;;14.60;83.10;;;;;;4719487;30;20372;-87
2020/12/22 11:59:33;;;;;;;;;;;14.60;82.90;;;;;;4719881;30;19918;-87
2020/12/22 12:02:05;;;;;;;;;;;14.70;83.00;;;;;;4721147;30;19922;-87
2020/12/22 12:04:31;;;;;;;;;;;14.70;83.00;;;;;;4741187;30;19918;-87
2020/12/22 12:06:57;;;;;;;;;;;14.70;82.90;;;;;;4752475;30;20017;-87
2020/12/22 12:09:22;;;;;;;;;;;14.70;82.80;;;;;;4752496;30;19976;-87
2020/12/22 12:11:51;;;;;;;;;;;14.70;82.80;;;;;;4767322;30;19918;-87
2020/12/22 12:14:18;;;;;;;;;;;14.70;82.80;;;;;;4738067;30;20361;-87
2020/12/22 12:16:47;;;;;;;;;;;14.70;82.70;;;;;;4751364;30;19917;-88
2020/12/22 12:19:13;;;;;;;;;;;14.70;82.60;;;;;;4754183;30;19925;-87
2020/12/22 12:21:38;;;;;;;;;;;14.70;82.50;;;;;;4758444;30;20277;-88
2020/12/22 12:24:04;;;;;;;;;;;14.80;82.40;;;;;;4764260;30;20052;-87
2020/12/22 12:26:30;;;;;;;;;;;14.80;82.30;;;;;;4767132;30;19937;-85
2020/12/22 12:28:55;;;;;;;;;;;14.80;82.10;;;;;;4770253;30;19922;-84
2020/12/22 12:31:22;;;;;;;;;;;14.80;82.10;;;;;;4740607;30;20024;-84
2020/12/22 12:33:48;;;;;;;;;;;14.80;81.80;;;;;;4739880;30;19929;-84
2020/12/22 12:36:13;;;;;;;;;;;14.80;81.50;;;;;;4754914;30;19922;-84
2020/12/22 12:38:39;;;;;;;;;;;14.80;81.50;;;;;;4739872;30;20286;-86
2020/12/22 12:41:05;;;;;;;;;;;14.80;81.40;;;;;;4755730;30;19913;-86
2020/12/22 12:43:30;;;;;;;;;;;14.80;81.40;;;;;;4754594;30;19918;-86
2020/12/22 12:45:56;;;;;;;;;;;14.80;81.30;;;;;;4754281;30;20365;-85
2020/12/22 12:48:21;;;;;;;;;;;14.80;81.20;;;;;;4756414;30;20004;-86
2020/12/22 12:50:47;;;;;;;;;;;14.80;81.00;;;;;;4742172;30;20847;-86
2020/12/22 12:53:12;;;;;;;;;;;14.80;81.00;;;;;;4742053;30;19933;-86
2020/12/22 12:55:38;;;;;;;;;;;14.80;81.00;;;;;;4756586;30;19933;-86
2020/12/22 12:58:03;;;;;;;;;;;14.80;80.60;;;;;;4756680;30;20362;-86
2020/12/22 13:00:29;;;;;;;;;;;14.80;80.60;;;;;;4738442;30;20033;-86
2020/12/22 13:02:54;;;;;;;;;;;14.80;80.50;;;;;;4753812;30;20009;-85
2020/12/22 13:05:20;;;;;;;;;;;14.90;80.60;;;;;;4738235;30;20385;-87
2020/12/22 13:07:45;;;;;;;;;;;14.90;80.60;;;;;;4737135;30;19922;-88
2020/12/22 13:10:11;;;;;;;;;;;14.90;80.50;;;;;;4751901;30;20021;-88
2020/12/22 13:12:36;;;;;;;;;;;14.90;80.50;;;;;;4726367;30;19965;-88
2020/12/22 13:15:03;;;;;;;;;;;14.90;80.30;;;;;;4754147;30;19929;-88
2020/12/22 13:17:28;;;;;;;;;;;14.90;80.30;;;;;;4735924;30;19976;-88
2020/12/22 13:19:54;;;;;;;;;;;14.90;80.20;;;;;;4737029;30;19914;-88
2020/12/22 13:22:19;;;;;;;;;;;14.90;80.00;;;;;;4736953;30;19919;-88
2020/12/22 13:24:45;;;;;;;;;;;14.90;80.10;;;;;;4751458;30;19922;-88
2020/12/22 13:27:10;;;;;;;;;;;14.90;80.10;;;;;;4736641;30;20339;-88
2020/12/22 13:29:36;;;;;;;;;;;14.90;80.10;;;;;;4736534;30;19922;-88
2020/12/22 13:32:01;;;;;;;;;;;14.90;79.90;;;;;;4736677;30;19922;-88
2020/12/22 13:34:27;;;;;;;;;;;14.90;79.50;;;;;;4751520;30;19983;-88
2020/12/22 13:36:53;;;;;;;;;;;14.90;79.60;;;;;;4736627;30;19918;-88
2020/12/22 13:39:20;;;;;;;;;;;14.90;79.40;;;;;;4752107;30;19930;-88
2020/12/22 13:41:46;;;;;;;;;;;14.90;79.70;;;;;;4736454;30;19970;-88
2020/12/22 13:44:12;;;;;;;;;;;14.90;79.50;;;;;;4736381;30;20354;-88
2020/12/22 13:46:37;;;;;;;;;;;14.90;79.60;;;;;;4736022;30;19920;-88
2020/12/22 13:49:03;;;;;;;;;;;14.90;79.60;;;;;;4736242;30;19925;-89
2020/12/22 13:51:28;;;;;;;;;;;15.00;79.80;;;;;;4751598;30;19927;-88
2020/12/22 13:53:54;;;;;;;;;;;15.00;79.90;;;;;;4722790;30;19922;-89
2020/12/22 13:56:19;;;;;;;;;;;15.00;79.90;;;;;;4724585;30;20013;-88
2020/12/22 13:58:47;;;;;;;;;;;15.00;79.90;;;;;;4753912;30;20378;-88
2020/12/22 14:01:13;;;;;;;;;;;15.00;80.00;;;;;;4754033;30;19918;-88
2020/12/22 14:03:38;;;;;;;;;;;15.00;80.00;;;;;;4753929;30;20714;-89
2020/12/22 14:06:04;;;;;;;;;;;15.00;80.50;;;;;;4769777;30;19914;-89
2020/12/22 14:08:30;;;;;;;;;;;15.00;79.90;;;;;;4753910;30;19929;-89
2020/12/22 14:10:56;;;;;;;;;;;15.00;80.00;;;;;;4736784;30;20370;-89
2020/12/22 14:13:21;;;;;;;;;;;15.10;80.10;;;;;;4729457;30;19933;-88
2020/12/22 14:15:47;;;;;;;;;;;15.00;80.10;;;;;;4753907;30;19924;-87